sensor_id;sensor_type;location;lat;lon;timestamp;P1;durP1;ratioP1;P2;durP2;ratioP2
54412;SDS011;41533;51.390;0.074;2022-09-21T00:00:53;3.78;;;1.95;;
54412;SDS011;41533;51.390;0.074;2022-09-21T00:03:20;3.00;;;1.58;;
54412;SDS011;41533;51.390;0.074;2022-09-21T00:05:47;4.80;;;2.08;;
54412;SDS011;41533;51.390;0.074;2022-09-21T00:08:15;2.63;;;1.42;;
54412;SDS011;41533;51.390;0.074;2022-09-21T00:10:48;5.35;;;1.83;;
54412;SDS011;41533;51.390;0.074;2022-09-21T00:13:15;2.85;;;1.63;;
54412;SDS011;41533;51.390;0.074;2022-09-21T00:15:44;3.35;;;1.98;;
54412;SDS011;41533;51.390;0.074;2022-09-21T00:18:11;3.67;;;2.08;;
54412;SDS011;41533;51.390;0.074;2022-09-21T00:20:40;2.40;;;1.80;;
54412;SDS011;41533;51.390;0.074;2022-09-21T00:23:09;2.35;;;1.73;;
54412;SDS011;41533;51.390;0.074;2022-09-21T00:25:36;3.15;;;1.65;;
54412;SDS011;41533;51.390;0.074;2022-09-21T00:28:04;3.55;;;1.88;;
54412;SDS011;41533;51.390;0.074;2022-09-21T00:30:31;3.53;;;1.83;;
54412;SDS011;41533;51.390;0.074;2022-09-21T00:32:58;2.10;;;1.70;;
54412;SDS011;41533;51.390;0.074;2022-09-21T00:35:25;3.83;;;2.20;;
54412;SDS011;41533;51.390;0.074;2022-09-21T00:37:53;3.47;;;2.17;;
54412;SDS011;41533;51.390;0.074;2022-09-21T00:40:20;4.32;;;1.92;;
54412;SDS011;41533;51.390;0.074;2022-09-21T00:42:47;3.67;;;2.45;;
54412;SDS011;41533;51.390;0.074;2022-09-21T00:45:15;2.50;;;2.08;;
54412;SDS011;41533;51.390;0.074;2022-09-21T00:47:50;3.40;;;1.95;;
54412;SDS011;41533;51.390;0.074;2022-09-21T00:50:19;3.45;;;1.88;;
54412;SDS011;41533;51.390;0.074;2022-09-21T00:52:49;3.55;;;2.47;;
54412;SDS011;41533;51.390;0.074;2022-09-21T00:55:19;3.00;;;2.10;;
54412;SDS011;41533;51.390;0.074;2022-09-21T00:57:49;5.57;;;3.28;;
54412;SDS011;41533;51.390;0.074;2022-09-21T01:00:18;2.53;;;1.70;;
54412;SDS011;41533;51.390;0.074;2022-09-21T01:02:45;3.50;;;1.90;;
54412;SDS011;41533;51.390;0.074;2022-09-21T01:05:13;2.65;;;1.75;;
54412;SDS011;41533;51.390;0.074;2022-09-21T01:07:41;3.10;;;2.08;;
54412;SDS011;41533;51.390;0.074;2022-09-21T01:10:12;3.47;;;1.90;;
54412;SDS011;41533;51.390;0.074;2022-09-21T01:12:54;3.40;;;1.73;;
54412;SDS011;41533;51.390;0.074;2022-09-21T01:31:27;3.70;;;2.22;;
54412;SDS011;41533;51.390;0.074;2022-09-21T01:33:57;2.80;;;2.05;;
54412;SDS011;41533;51.390;0.074;2022-09-21T01:36:27;3.85;;;2.58;;
54412;SDS011;41533;51.390;0.074;2022-09-21T01:38:59;3.65;;;2.15;;
54412;SDS011;41533;51.390;0.074;2022-09-21T01:41:27;3.58;;;2.00;;
54412;SDS011;41533;51.390;0.074;2022-09-21T01:43:56;3.13;;;1.95;;
54412;SDS011;41533;51.390;0.074;2022-09-21T01:46:26;2.78;;;2.03;;
54412;SDS011;41533;51.390;0.074;2022-09-21T01:48:58;3.17;;;1.95;;
54412;SDS011;41533;51.390;0.074;2022-09-21T01:51:27;4.03;;;2.45;;
54412;SDS011;41533;51.390;0.074;2022-09-21T01:54:02;2.42;;;2.15;;
54412;SDS011;41533;51.390;0.074;2022-09-21T01:56:40;3.55;;;2.30;;
54412;SDS011;41533;51.390;0.074;2022-09-21T01:59:15;2.28;;;1.77;;
54412;SDS011;41533;51.390;0.074;2022-09-21T02:01:45;3.47;;;2.00;;
54412;SDS011;41533;51.390;0.074;2022-09-21T02:04:13;3.33;;;2.00;;
54412;SDS011;41533;51.390;0.074;2022-09-21T02:06:41;5.65;;;2.13;;
54412;SDS011;41533;51.390;0.074;2022-09-21T02:09:10;3.63;;;2.13;;
54412;SDS011;41533;51.390;0.074;2022-09-21T02:11:37;2.83;;;2.03;;
54412;SDS011;41533;51.390;0.074;2022-09-21T02:14:12;3.63;;;2.35;;
54412;SDS011;41533;51.390;0.074;2022-09-21T02:16:47;2.50;;;1.70;;
54412;SDS011;41533;51.390;0.074;2022-09-21T02:19:30;3.58;;;2.25;;
54412;SDS011;41533;51.390;0.074;2022-09-21T02:24:34;5.35;;;2.90;;
54412;SDS011;41533;51.390;0.074;2022-09-21T02:34:48;5.95;;;2.30;;
54412;SDS011;41533;51.390;0.074;2022-09-21T02:37:20;5.40;;;2.42;;
54412;SDS011;41533;51.390;0.074;2022-09-21T02:40:03;4.53;;;2.40;;
54412;SDS011;41533;51.390;0.074;2022-09-21T02:42:33;4.32;;;2.47;;
54412;SDS011;41533;51.390;0.074;2022-09-21T02:45:04;5.70;;;2.10;;
54412;SDS011;41533;51.390;0.074;2022-09-21T02:47:41;3.22;;;2.30;;
54412;SDS011;41533;51.390;0.074;2022-09-21T02:50:21;3.53;;;2.42;;
54412;SDS011;41533;51.390;0.074;2022-09-21T02:52:50;2.88;;;1.98;;
54412;SDS011;41533;51.390;0.074;2022-09-21T02:55:18;4.35;;;1.98;;
54412;SDS011;41533;51.390;0.074;2022-09-21T02:57:46;3.90;;;1.75;;
54412;SDS011;41533;51.390;0.074;2022-09-21T03:00:14;3.38;;;1.95;;
54412;SDS011;41533;51.390;0.074;2022-09-21T03:02:43;3.13;;;2.33;;
54412;SDS011;41533;51.390;0.074;2022-09-21T03:05:11;3.10;;;2.20;;
54412;SDS011;41533;51.390;0.074;2022-09-21T03:07:39;3.97;;;1.92;;
54412;SDS011;41533;51.390;0.074;2022-09-21T03:10:06;3.92;;;2.05;;
54412;SDS011;41533;51.390;0.074;2022-09-21T03:12:35;3.45;;;2.22;;
54412;SDS011;41533;51.390;0.074;2022-09-21T03:15:02;4.03;;;2.30;;
54412;SDS011;41533;51.390;0.074;2022-09-21T03:17:30;2.67;;;2.00;;
54412;SDS011;41533;51.390;0.074;2022-09-21T03:19:57;3.33;;;1.90;;
54412;SDS011;41533;51.390;0.074;2022-09-21T03:22:24;3.53;;;1.85;;
54412;SDS011;41533;51.390;0.074;2022-09-21T03:24:52;2.85;;;2.33;;
54412;SDS011;41533;51.390;0.074;2022-09-21T03:27:23;3.13;;;1.98;;
54412;SDS011;41533;51.390;0.074;2022-09-21T03:29:50;2.95;;;2.03;;
54412;SDS011;41533;51.390;0.074;2022-09-21T03:32:18;4.25;;;2.33;;
54412;SDS011;41533;51.390;0.074;2022-09-21T03:34:45;2.80;;;1.85;;
54412;SDS011;41533;51.390;0.074;2022-09-21T03:37:12;4.13;;;2.25;;
54412;SDS011;41533;51.390;0.074;2022-09-21T03:39:40;4.72;;;2.30;;
54412;SDS011;41533;51.390;0.074;2022-09-21T03:42:07;4.25;;;2.05;;
54412;SDS011;41533;51.390;0.074;2022-09-21T03:44:36;9.40;;;1.98;;
54412;SDS011;41533;51.390;0.074;2022-09-21T03:47:03;2.58;;;1.90;;
54412;SDS011;41533;51.390;0.074;2022-09-21T03:49:32;2.97;;;1.98;;
54412;SDS011;41533;51.390;0.074;2022-09-21T03:52:01;2.72;;;2.20;;
54412;SDS011;41533;51.390;0.074;2022-09-21T03:54:28;5.32;;;2.33;;
54412;SDS011;41533;51.390;0.074;2022-09-21T03:56:55;3.65;;;2.05;;
54412;SDS011;41533;51.390;0.074;2022-09-21T03:59:22;5.22;;;1.70;;
54412;SDS011;41533;51.390;0.074;2022-09-21T04:01:50;3.42;;;2.20;;
54412;SDS011;41533;51.390;0.074;2022-09-21T04:04:17;3.30;;;2.05;;
54412;SDS011;41533;51.390;0.074;2022-09-21T04:06:45;5.18;;;2.13;;
54412;SDS011;41533;51.390;0.074;2022-09-21T04:09:12;6.60;;;2.47;;
54412;SDS011;41533;51.390;0.074;2022-09-21T04:11:39;4.20;;;2.05;;
54412;SDS011;41533;51.390;0.074;2022-09-21T04:14:06;4.72;;;2.45;;
54412;SDS011;41533;51.390;0.074;2022-09-21T04:16:34;5.65;;;2.30;;
54412;SDS011;41533;51.390;0.074;2022-09-21T04:19:01;3.30;;;1.98;;
54412;SDS011;41533;51.390;0.074;2022-09-21T04:21:28;4.40;;;1.88;;
54412;SDS011;41533;51.390;0.074;2022-09-21T04:23:56;5.03;;;1.70;;
54412;SDS011;41533;51.390;0.074;2022-09-21T04:26:24;3.25;;;1.95;;
54412;SDS011;41533;51.390;0.074;2022-09-21T04:28:52;4.32;;;2.00;;
54412;SDS011;41533;51.390;0.074;2022-09-21T04:31:21;5.18;;;2.17;;
54412;SDS011;41533;51.390;0.074;2022-09-21T04:33:49;4.25;;;2.25;;
54412;SDS011;41533;51.390;0.074;2022-09-21T04:36:17;3.42;;;2.08;;
54412;SDS011;41533;51.390;0.074;2022-09-21T04:38:45;4.03;;;1.95;;
54412;SDS011;41533;51.390;0.074;2022-09-21T04:41:13;3.03;;;1.88;;
54412;SDS011;41533;51.390;0.074;2022-09-21T04:43:41;3.80;;;1.95;;
54412;SDS011;41533;51.390;0.074;2022-09-21T04:46:10;3.05;;;1.90;;
54412;SDS011;41533;51.390;0.074;2022-09-21T04:48:38;3.75;;;2.03;;
54412;SDS011;41533;51.390;0.074;2022-09-21T04:51:06;2.70;;;1.80;;
54412;SDS011;41533;51.390;0.074;2022-09-21T04:53:34;2.35;;;1.80;;
54412;SDS011;41533;51.390;0.074;2022-09-21T04:56:02;3.75;;;1.73;;
54412;SDS011;41533;51.390;0.074;2022-09-21T04:58:30;3.85;;;2.10;;
54412;SDS011;41533;51.390;0.074;2022-09-21T05:00:57;3.50;;;1.67;;
54412;SDS011;41533;51.390;0.074;2022-09-21T05:03:25;5.15;;;2.15;;
54412;SDS011;41533;51.390;0.074;2022-09-21T05:05:53;2.88;;;1.85;;
54412;SDS011;41533;51.390;0.074;2022-09-21T05:08:21;4.60;;;2.15;;
54412;SDS011;41533;51.390;0.074;2022-09-21T05:11:08;3.10;;;1.80;;
54412;SDS011;41533;51.390;0.074;2022-09-21T05:13:35;4.43;;;1.70;;
54412;SDS011;41533;51.390;0.074;2022-09-21T05:16:03;2.97;;;1.70;;
54412;SDS011;41533;51.390;0.074;2022-09-21T05:18:30;2.53;;;2.00;;
54412;SDS011;41533;51.390;0.074;2022-09-21T05:20:58;2.63;;;1.98;;
54412;SDS011;41533;51.390;0.074;2022-09-21T05:23:26;3.85;;;1.75;;
54412;SDS011;41533;51.390;0.074;2022-09-21T05:25:55;3.03;;;2.08;;
54412;SDS011;41533;51.390;0.074;2022-09-21T05:28:23;2.33;;;1.83;;
54412;SDS011;41533;51.390;0.074;2022-09-21T05:30:52;3.30;;;1.88;;
54412;SDS011;41533;51.390;0.074;2022-09-21T05:33:43;2.83;;;1.92;;
54412;SDS011;41533;51.390;0.074;2022-09-21T05:39:00;5.05;;;1.83;;
54412;SDS011;41533;51.390;0.074;2022-09-21T05:41:27;3.10;;;2.13;;
54412;SDS011;41533;51.390;0.074;2022-09-21T05:43:55;2.53;;;1.63;;
54412;SDS011;41533;51.390;0.074;2022-09-21T05:49:02;3.33;;;1.98;;
54412;SDS011;41533;51.390;0.074;2022-09-21T05:51:39;3.20;;;1.80;;
54412;SDS011;41533;51.390;0.074;2022-09-21T05:54:24;5.07;;;2.63;;
54412;SDS011;41533;51.390;0.074;2022-09-21T06:04:39;3.43;;;1.83;;
54412;SDS011;41533;51.390;0.074;2022-09-21T06:07:09;3.05;;;1.67;;
54412;SDS011;41533;51.390;0.074;2022-09-21T06:09:36;5.18;;;1.85;;
54412;SDS011;41533;51.390;0.074;2022-09-21T06:12:08;2.90;;;2.30;;
54412;SDS011;41533;51.390;0.074;2022-09-21T06:14:37;3.45;;;1.83;;
54412;SDS011;41533;51.390;0.074;2022-09-21T06:17:04;2.38;;;1.55;;
54412;SDS011;41533;51.390;0.074;2022-09-21T06:19:31;3.88;;;1.80;;
54412;SDS011;41533;51.390;0.074;2022-09-21T06:21:59;2.20;;;1.40;;
54412;SDS011;41533;51.390;0.074;2022-09-21T06:24:26;5.07;;;1.42;;
54412;SDS011;41533;51.390;0.074;2022-09-21T06:26:53;3.17;;;1.75;;
54412;SDS011;41533;51.390;0.074;2022-09-21T06:29:20;3.33;;;1.55;;
54412;SDS011;41533;51.390;0.074;2022-09-21T06:31:49;2.58;;;1.55;;
54412;SDS011;41533;51.390;0.074;2022-09-21T06:34:17;3.85;;;1.48;;
54412;SDS011;41533;51.390;0.074;2022-09-21T06:36:44;2.95;;;1.90;;
54412;SDS011;41533;51.390;0.074;2022-09-21T06:39:12;2.28;;;1.45;;
54412;SDS011;41533;51.390;0.074;2022-09-21T06:41:39;2.67;;;1.52;;
54412;SDS011;41533;51.390;0.074;2022-09-21T06:44:09;4.32;;;1.80;;
54412;SDS011;41533;51.390;0.074;2022-09-21T06:46:36;3.10;;;2.10;;
54412;SDS011;41533;51.390;0.074;2022-09-21T06:49:03;2.25;;;1.58;;
54412;SDS011;41533;51.390;0.074;2022-09-21T06:51:31;2.67;;;1.70;;
54412;SDS011;41533;51.390;0.074;2022-09-21T06:53:58;2.78;;;1.77;;
54412;SDS011;41533;51.390;0.074;2022-09-21T06:56:25;3.42;;;1.77;;
54412;SDS011;41533;51.390;0.074;2022-09-21T06:58:53;5.95;;;2.00;;
54412;SDS011;41533;51.390;0.074;2022-09-21T07:01:20;2.58;;;1.50;;
54412;SDS011;41533;51.390;0.074;2022-09-21T07:03:48;2.83;;;1.52;;
54412;SDS011;41533;51.390;0.074;2022-09-21T07:06:18;2.45;;;1.60;;
54412;SDS011;41533;51.390;0.074;2022-09-21T07:08:46;2.95;;;1.75;;
54412;SDS011;41533;51.390;0.074;2022-09-21T07:11:33;3.72;;;1.92;;
54412;SDS011;41533;51.390;0.074;2022-09-21T07:14:00;3.65;;;1.55;;
54412;SDS011;41533;51.390;0.074;2022-09-21T07:16:29;3.22;;;1.75;;
54412;SDS011;41533;51.390;0.074;2022-09-21T07:18:57;2.55;;;1.58;;
54412;SDS011;41533;51.390;0.074;2022-09-21T07:21:36;2.58;;;1.70;;
54412;SDS011;41533;51.390;0.074;2022-09-21T07:24:03;1.88;;;1.42;;
54412;SDS011;41533;51.390;0.074;2022-09-21T07:26:34;4.07;;;1.80;;
54412;SDS011;41533;51.390;0.074;2022-09-21T07:29:03;2.95;;;1.88;;
54412;SDS011;41533;51.390;0.074;2022-09-21T07:31:30;5.47;;;1.73;;
54412;SDS011;41533;51.390;0.074;2022-09-21T07:33:57;1.70;;;1.42;;
54412;SDS011;41533;51.390;0.074;2022-09-21T07:36:25;2.53;;;1.70;;
54412;SDS011;41533;51.390;0.074;2022-09-21T07:38:52;1.60;;;1.25;;
54412;SDS011;41533;51.390;0.074;2022-09-21T07:41:20;1.80;;;1.38;;
54412;SDS011;41533;51.390;0.074;2022-09-21T07:43:47;6.38;;;2.67;;
54412;SDS011;41533;51.390;0.074;2022-09-21T07:46:14;2.83;;;1.58;;
54412;SDS011;41533;51.390;0.074;2022-09-21T07:48:41;2.13;;;1.63;;
54412;SDS011;41533;51.390;0.074;2022-09-21T07:51:10;2.45;;;1.80;;
54412;SDS011;41533;51.390;0.074;2022-09-21T07:53:38;3.03;;;1.52;;
54412;SDS011;41533;51.390;0.074;2022-09-21T07:56:06;3.45;;;2.00;;
54412;SDS011;41533;51.390;0.074;2022-09-21T07:58:34;2.85;;;1.75;;
54412;SDS011;41533;51.390;0.074;2022-09-21T08:01:21;2.33;;;2.00;;
54412;SDS011;41533;51.390;0.074;2022-09-21T08:03:49;3.33;;;1.88;;
54412;SDS011;41533;51.390;0.074;2022-09-21T08:06:17;6.93;;;2.15;;
54412;SDS011;41533;51.390;0.074;2022-09-21T08:08:45;2.95;;;1.90;;
54412;SDS011;41533;51.390;0.074;2022-09-21T08:11:21;3.35;;;1.73;;
54412;SDS011;41533;51.390;0.074;2022-09-21T08:13:51;2.88;;;1.92;;
54412;SDS011;41533;51.390;0.074;2022-09-21T08:16:18;3.92;;;1.73;;
54412;SDS011;41533;51.390;0.074;2022-09-21T08:18:45;4.00;;;1.73;;
54412;SDS011;41533;51.390;0.074;2022-09-21T08:21:12;2.58;;;1.77;;
54412;SDS011;41533;51.390;0.074;2022-09-21T08:23:40;2.17;;;1.50;;
54412;SDS011;41533;51.390;0.074;2022-09-21T08:26:12;3.58;;;1.73;;
54412;SDS011;41533;51.390;0.074;2022-09-21T08:28:45;2.58;;;1.58;;
54412;SDS011;41533;51.390;0.074;2022-09-21T08:31:16;3.28;;;1.50;;
54412;SDS011;41533;51.390;0.074;2022-09-21T08:33:45;3.38;;;1.73;;
54412;SDS011;41533;51.390;0.074;2022-09-21T08:36:13;2.97;;;1.50;;
54412;SDS011;41533;51.390;0.074;2022-09-21T08:38:40;2.53;;;1.63;;
54412;SDS011;41533;51.390;0.074;2022-09-21T08:41:12;1.65;;;1.40;;
54412;SDS011;41533;51.390;0.074;2022-09-21T08:43:41;2.08;;;1.35;;
54412;SDS011;41533;51.390;0.074;2022-09-21T08:46:10;4.00;;;1.80;;
54412;SDS011;41533;51.390;0.074;2022-09-21T08:48:39;2.25;;;1.38;;
54412;SDS011;41533;51.390;0.074;2022-09-21T08:51:09;3.20;;;1.52;;
54412;SDS011;41533;51.390;0.074;2022-09-21T08:53:38;2.38;;;1.60;;
54412;SDS011;41533;51.390;0.074;2022-09-21T08:56:13;3.63;;;1.60;;
54412;SDS011;41533;51.390;0.074;2022-09-21T08:58:41;4.43;;;1.73;;
54412;SDS011;41533;51.390;0.074;2022-09-21T09:04:06;4.25;;;1.58;;
54412;SDS011;41533;51.390;0.074;2022-09-21T09:06:41;2.88;;;1.55;;
54412;SDS011;41533;51.390;0.074;2022-09-21T09:09:20;1.50;;;1.40;;
54412;SDS011;41533;51.390;0.074;2022-09-21T09:14:38;2.55;;;1.63;;
54412;SDS011;41533;51.390;0.074;2022-09-21T09:18:10;2.85;;;1.63;;
54412;SDS011;41533;51.390;0.074;2022-09-21T09:25:39;2.22;;;1.48;;
54412;SDS011;41533;51.390;0.074;2022-09-21T09:30:40;2.42;;;1.90;;
54412;SDS011;41533;51.390;0.074;2022-09-21T09:33:21;2.72;;;1.70;;
54412;SDS011;41533;51.390;0.074;2022-09-21T09:36:00;3.78;;;1.65;;
54412;SDS011;41533;51.390;0.074;2022-09-21T09:38:43;2.78;;;1.73;;
54412;SDS011;41533;51.390;0.074;2022-09-21T09:46:18;2.80;;;1.50;;
54412;SDS011;41533;51.390;0.074;2022-09-21T09:49:32;1.90;;;1.25;;
54412;SDS011;41533;51.390;0.074;2022-09-21T09:51:39;3.45;;;1.30;;
54412;SDS011;41533;51.390;0.074;2022-09-21T09:54:11;2.92;;;1.80;;
54412;SDS011;41533;51.390;0.074;2022-09-21T09:56:39;2.17;;;1.52;;
54412;SDS011;41533;51.390;0.074;2022-09-21T10:04:27;5.60;;;1.48;;
54412;SDS011;41533;51.390;0.074;2022-09-21T10:06:54;4.15;;;1.85;;
54412;SDS011;41533;51.390;0.074;2022-09-21T10:09:23;2.35;;;1.30;;
54412;SDS011;41533;51.390;0.074;2022-09-21T10:12:34;5.95;;;1.67;;
54412;SDS011;41533;51.390;0.074;2022-09-21T10:14:46;1.95;;;1.15;;
54412;SDS011;41533;51.390;0.074;2022-09-21T10:17:15;3.05;;;1.50;;
54412;SDS011;41533;51.390;0.074;2022-09-21T10:19:43;1.92;;;1.02;;
54412;SDS011;41533;51.390;0.074;2022-09-21T10:22:19;3.53;;;1.17;;
54412;SDS011;41533;51.390;0.074;2022-09-21T10:24:50;1.77;;;1.25;;
54412;SDS011;41533;51.390;0.074;2022-09-21T10:27:23;3.30;;;1.30;;
54412;SDS011;41533;51.390;0.074;2022-09-21T10:29:51;3.05;;;1.60;;
54412;SDS011;41533;51.390;0.074;2022-09-21T10:34:59;1.77;;;1.50;;
54412;SDS011;41533;51.390;0.074;2022-09-21T10:39:54;2.25;;;1.40;;
54412;SDS011;41533;51.390;0.074;2022-09-21T10:42:23;2.30;;;1.67;;
54412;SDS011;41533;51.390;0.074;2022-09-21T10:45:03;3.03;;;1.35;;
54412;SDS011;41533;51.390;0.074;2022-09-21T10:47:34;1.33;;;0.98;;
54412;SDS011;41533;51.390;0.074;2022-09-21T10:50:05;2.92;;;1.33;;
54412;SDS011;41533;51.390;0.074;2022-09-21T10:52:35;3.53;;;1.58;;
54412;SDS011;41533;51.390;0.074;2022-09-21T10:55:04;2.30;;;1.30;;
54412;SDS011;41533;51.390;0.074;2022-09-21T10:57:32;3.63;;;1.55;;
54412;SDS011;41533;51.390;0.074;2022-09-21T11:02:46;1.58;;;0.88;;
54412;SDS011;41533;51.390;0.074;2022-09-21T11:05:15;1.65;;;1.02;;
54412;SDS011;41533;51.390;0.074;2022-09-21T11:07:48;1.60;;;0.90;;
54412;SDS011;41533;51.390;0.074;2022-09-21T11:15:36;1.20;;;1.10;;
54412;SDS011;41533;51.390;0.074;2022-09-21T11:20:45;1.92;;;1.02;;
54412;SDS011;41533;51.390;0.074;2022-09-21T11:25:59;1.23;;;0.98;;
54412;SDS011;41533;51.390;0.074;2022-09-21T11:28:40;1.45;;;0.90;;
54412;SDS011;41533;51.390;0.074;2022-09-21T11:31:13;2.03;;;1.30;;
54412;SDS011;41533;51.390;0.074;2022-09-21T11:39:03;4.65;;;1.40;;
54412;SDS011;41533;51.390;0.074;2022-09-21T11:46:44;2.75;;;1.20;;
54412;SDS011;41533;51.390;0.074;2022-09-21T11:52:22;2.42;;;1.38;;
54412;SDS011;41533;51.390;0.074;2022-09-21T11:55:01;1.98;;;1.20;;
54412;SDS011;41533;51.390;0.074;2022-09-21T12:05:14;2.50;;;1.00;;
54412;SDS011;41533;51.390;0.074;2022-09-21T12:10:22;2.65;;;1.55;;
54412;SDS011;41533;51.390;0.074;2022-09-21T12:13:36;1.55;;;1.00;;
54412;SDS011;41533;51.390;0.074;2022-09-21T12:23:44;1.52;;;1.30;;
54412;SDS011;41533;51.390;0.074;2022-09-21T12:26:09;1.73;;;1.10;;
54412;SDS011;41533;51.390;0.074;2022-09-21T12:28:49;3.53;;;1.17;;
54412;SDS011;41533;51.390;0.074;2022-09-21T12:31:25;1.77;;;1.20;;
54412;SDS011;41533;51.390;0.074;2022-09-21T12:34:00;1.60;;;1.00;;
54412;SDS011;41533;51.390;0.074;2022-09-21T12:36:33;3.38;;;1.50;;
54412;SDS011;41533;51.390;0.074;2022-09-21T12:41:51;1.60;;;1.15;;
54412;SDS011;41533;51.390;0.074;2022-09-21T12:47:08;1.00;;;0.90;;
54412;SDS011;41533;51.390;0.074;2022-09-21T12:49:41;1.30;;;1.00;;
54412;SDS011;41533;51.390;0.074;2022-09-21T12:52:09;1.43;;;0.90;;
54412;SDS011;41533;51.390;0.074;2022-09-21T13:00:06;1.85;;;1.20;;
54412;SDS011;41533;51.390;0.074;2022-09-21T13:02:47;4.18;;;1.30;;
54412;SDS011;41533;51.390;0.074;2022-09-21T13:05:22;1.95;;;1.00;;
54412;SDS011;41533;51.390;0.074;2022-09-21T13:10:36;1.08;;;0.80;;
54412;SDS011;41533;51.390;0.074;2022-09-21T13:13:12;1.00;;;0.88;;
54412;SDS011;41533;51.390;0.074;2022-09-21T13:15:44;0.82;;;0.80;;
54412;SDS011;41533;51.390;0.074;2022-09-21T13:18:20;1.67;;;0.80;;
54412;SDS011;41533;51.390;0.074;2022-09-21T13:20:48;2.50;;;1.00;;
54412;SDS011;41533;51.390;0.074;2022-09-21T13:23:22;1.55;;;1.23;;
54412;SDS011;41533;51.390;0.074;2022-09-21T13:26:52;1.48;;;1.02;;
54412;SDS011;41533;51.390;0.074;2022-09-21T13:31:40;2.22;;;1.08;;
54412;SDS011;41533;51.390;0.074;2022-09-21T13:36:41;1.83;;;1.20;;
54412;SDS011;41533;51.390;0.074;2022-09-21T13:39:16;1.17;;;1.08;;
54412;SDS011;41533;51.390;0.074;2022-09-21T13:41:44;1.27;;;1.10;;
54412;SDS011;41533;51.390;0.074;2022-09-21T13:44:39;1.63;;;1.00;;
54412;SDS011;41533;51.390;0.074;2022-09-21T13:47:07;1.00;;;0.80;;
54412;SDS011;41533;51.390;0.074;2022-09-21T13:49:39;1.20;;;0.98;;
54412;SDS011;41533;51.390;0.074;2022-09-21T13:59:45;1.83;;;1.10;;
54412;SDS011;41533;51.390;0.074;2022-09-21T14:02:28;3.53;;;1.30;;
54412;SDS011;41533;51.390;0.074;2022-09-21T14:05:42;1.10;;;1.00;;
54412;SDS011;41533;51.390;0.074;2022-09-21T14:07:56;0.95;;;0.70;;
54412;SDS011;41533;51.390;0.074;2022-09-21T14:10:26;2.15;;;1.10;;
54412;SDS011;41533;51.390;0.074;2022-09-21T14:12:55;2.65;;;1.17;;
54412;SDS011;41533;51.390;0.074;2022-09-21T14:20:35;1.23;;;1.02;;
54412;SDS011;41533;51.390;0.074;2022-09-21T14:28:41;0.88;;;0.88;;
54412;SDS011;41533;51.390;0.074;2022-09-21T14:31:25;1.05;;;0.93;;
54412;SDS011;41533;51.390;0.074;2022-09-21T14:33:54;1.10;;;0.70;;
54412;SDS011;41533;51.390;0.074;2022-09-21T14:36:27;1.10;;;0.75;;
54412;SDS011;41533;51.390;0.074;2022-09-21T14:39:01;1.40;;;0.95;;
54412;SDS011;41533;51.390;0.074;2022-09-21T14:41:30;1.25;;;0.88;;
54412;SDS011;41533;51.390;0.074;2022-09-21T14:43:58;1.55;;;1.15;;
54412;SDS011;41533;51.390;0.074;2022-09-21T14:46:42;1.60;;;0.90;;
54412;SDS011;41533;51.390;0.074;2022-09-21T15:00:16;1.55;;;0.80;;
54412;SDS011;41533;51.390;0.074;2022-09-21T15:05:37;1.48;;;1.15;;
54412;SDS011;41533;51.390;0.074;2022-09-21T15:18:49;1.13;;;0.85;;
54412;SDS011;41533;51.390;0.074;2022-09-21T15:21:27;0.98;;;0.80;;
54412;SDS011;41533;51.390;0.074;2022-09-21T15:23:55;1.33;;;1.00;;
54412;SDS011;41533;51.390;0.074;2022-09-21T15:26:24;0.75;;;0.60;;
54412;SDS011;41533;51.390;0.074;2022-09-21T15:28:53;1.27;;;0.70;;
54412;SDS011;41533;51.390;0.074;2022-09-21T15:31:37;0.93;;;0.80;;
54412;SDS011;41533;51.390;0.074;2022-09-21T15:34:05;1.20;;;0.82;;
54412;SDS011;41533;51.390;0.074;2022-09-21T15:36:35;0.70;;;0.70;;
54412;SDS011;41533;51.390;0.074;2022-09-21T15:39:03;0.90;;;0.70;;
54412;SDS011;41533;51.390;0.074;2022-09-21T15:44:17;1.23;;;0.85;;
54412;SDS011;41533;51.390;0.074;2022-09-21T15:46:48;1.65;;;0.95;;
54412;SDS011;41533;51.390;0.074;2022-09-21T15:49:17;1.05;;;0.90;;
54412;SDS011;41533;51.390;0.074;2022-09-21T15:51:51;1.30;;;0.90;;
54412;SDS011;41533;51.390;0.074;2022-09-21T15:57:24;1.37;;;0.90;;
54412;SDS011;41533;51.390;0.074;2022-09-21T15:59:54;1.10;;;0.82;;
54412;SDS011;41533;51.390;0.074;2022-09-21T16:02:22;1.23;;;0.73;;
54412;SDS011;41533;51.390;0.074;2022-09-21T16:04:51;3.67;;;1.10;;
54412;SDS011;41533;51.390;0.074;2022-09-21T16:07:23;1.10;;;0.80;;
54412;SDS011;41533;51.390;0.074;2022-09-21T16:09:51;0.95;;;0.73;;
54412;SDS011;41533;51.390;0.074;2022-09-21T16:14:52;0.70;;;0.70;;
54412;SDS011;41533;51.390;0.074;2022-09-21T16:17:21;1.38;;;0.88;;
54412;SDS011;41533;51.390;0.074;2022-09-21T16:22:34;1.52;;;0.85;;
54412;SDS011;41533;51.390;0.074;2022-09-21T16:25:02;2.05;;;0.90;;
54412;SDS011;41533;51.390;0.074;2022-09-21T16:27:39;1.35;;;0.73;;
54412;SDS011;41533;51.390;0.074;2022-09-21T16:33:01;1.23;;;1.05;;
54412;SDS011;41533;51.390;0.074;2022-09-21T16:35:30;1.45;;;0.93;;
54412;SDS011;41533;51.390;0.074;2022-09-21T16:38:04;1.02;;;0.80;;
54412;SDS011;41533;51.390;0.074;2022-09-21T16:40:35;1.35;;;0.88;;
54412;SDS011;41533;51.390;0.074;2022-09-21T16:43:03;0.77;;;0.77;;
54412;SDS011;41533;51.390;0.074;2022-09-21T16:45:31;1.30;;;1.00;;
54412;SDS011;41533;51.390;0.074;2022-09-21T16:47:58;1.35;;;0.90;;
54412;SDS011;41533;51.390;0.074;2022-09-21T16:50:26;2.00;;;1.00;;
54412;SDS011;41533;51.390;0.074;2022-09-21T16:52:53;2.38;;;0.90;;
54412;SDS011;41533;51.390;0.074;2022-09-21T16:55:20;0.98;;;0.70;;
54412;SDS011;41533;51.390;0.074;2022-09-21T16:57:51;1.08;;;0.80;;
54412;SDS011;41533;51.390;0.074;2022-09-21T17:00:19;0.55;;;0.50;;
54412;SDS011;41533;51.390;0.074;2022-09-21T17:02:47;1.00;;;0.70;;
54412;SDS011;41533;51.390;0.074;2022-09-21T17:05:14;1.13;;;0.95;;
54412;SDS011;41533;51.390;0.074;2022-09-21T17:08:01;0.98;;;0.70;;
54412;SDS011;41533;51.390;0.074;2022-09-21T17:10:30;2.08;;;1.05;;
54412;SDS011;41533;51.390;0.074;2022-09-21T17:12:57;2.65;;;0.75;;
54412;SDS011;41533;51.390;0.074;2022-09-21T17:15:25;1.25;;;0.70;;
54412;SDS011;41533;51.390;0.074;2022-09-21T17:17:52;0.80;;;0.80;;
54412;SDS011;41533;51.390;0.074;2022-09-21T17:22:56;1.38;;;0.70;;
54412;SDS011;41533;51.390;0.074;2022-09-21T17:25:24;0.70;;;0.70;;
54412;SDS011;41533;51.390;0.074;2022-09-21T17:27:51;1.05;;;0.60;;
54412;SDS011;41533;51.390;0.074;2022-09-21T17:30:19;1.13;;;0.80;;
54412;SDS011;41533;51.390;0.074;2022-09-21T17:32:47;1.63;;;0.88;;
54412;SDS011;41533;51.390;0.074;2022-09-21T17:37:43;0.88;;;0.55;;
54412;SDS011;41533;51.390;0.074;2022-09-21T17:40:11;0.65;;;0.65;;
54412;SDS011;41533;51.390;0.074;2022-09-21T17:42:39;1.00;;;0.65;;
54412;SDS011;41533;51.390;0.074;2022-09-21T17:45:14;0.88;;;0.80;;
54412;SDS011;41533;51.390;0.074;2022-09-21T17:47:42;1.05;;;0.68;;
54412;SDS011;41533;51.390;0.074;2022-09-21T17:52:40;1.15;;;0.90;;
54412;SDS011;41533;51.390;0.074;2022-09-21T17:55:27;0.70;;;0.70;;
54412;SDS011;41533;51.390;0.074;2022-09-21T18:00:27;0.70;;;0.70;;
54412;SDS011;41533;51.390;0.074;2022-09-21T18:02:56;1.55;;;1.00;;
54412;SDS011;41533;51.390;0.074;2022-09-21T18:05:25;1.20;;;1.10;;
54412;SDS011;41533;51.390;0.074;2022-09-21T18:07:52;1.40;;;0.82;;
54412;SDS011;41533;51.390;0.074;2022-09-21T18:10:20;1.05;;;0.70;;
54412;SDS011;41533;51.390;0.074;2022-09-21T18:15:55;2.65;;;1.02;;
54412;SDS011;41533;51.390;0.074;2022-09-21T18:21:03;1.55;;;0.80;;
54412;SDS011;41533;51.390;0.074;2022-09-21T18:26:17;1.60;;;0.95;;
54412;SDS011;41533;51.390;0.074;2022-09-21T18:28:47;1.40;;;0.82;;
54412;SDS011;41533;51.390;0.074;2022-09-21T18:47:12;1.25;;;0.85;;
54412;SDS011;41533;51.390;0.074;2022-09-21T18:49:58;2.15;;;1.40;;
54412;SDS011;41533;51.390;0.074;2022-09-21T18:54:57;1.42;;;1.20;;